createdAt,value
2023-02-19T00:01:06.921Z,101544.38
2023-02-19T00:03:33.349Z,101545.88
2023-02-19T00:06:01.166Z,101540.72
2023-02-19T00:08:28.962Z,101539.72
2023-02-19T00:10:55.304Z,101535.41
2023-02-19T00:13:22.974Z,101547.88
2023-02-19T00:15:49.285Z,101544.50
2023-02-19T00:18:15.634Z,101543.38
2023-02-19T00:20:41.919Z,101535.41
2023-02-19T00:23:08.219Z,101530.09
2023-02-19T00:25:36.455Z,101539.47
2023-02-19T00:28:02.868Z,101537.38
2023-02-19T00:30:30.695Z,101540.56
2023-02-19T00:32:56.978Z,101539.06
2023-02-19T00:35:23.297Z,101532.06
2023-02-19T00:37:50.148Z,101533.44
2023-02-19T00:40:16.660Z,101541.28
2023-02-19T00:42:42.937Z,101543.94
2023-02-19T00:45:09.219Z,101540.16
2023-02-19T00:47:37.123Z,101540.75
2023-02-19T00:50:03.527Z,101535.25
2023-02-19T00:52:29.883Z,101540.16
2023-02-19T00:54:56.157Z,101537.66
2023-02-19T00:57:22.462Z,101548.56
2023-02-19T00:59:48.831Z,101545.06
2023-02-19T01:02:15.241Z,101547.59
2023-02-19T01:04:42.992Z,101542.25
2023-02-19T01:07:10.184Z,101549.13
2023-02-19T01:09:36.632Z,101545.22
2023-02-19T01:12:03.023Z,101548.00
2023-02-19T01:14:29.309Z,101552.88
2023-02-19T01:16:55.613Z,101550.78
2023-02-19T01:19:21.954Z,101558.63
2023-02-19T01:21:49.642Z,101552.22
2023-02-19T01:24:15.977Z,101561.16
2023-02-19T01:26:42.670Z,101545.47
2023-02-19T01:29:09.267Z,101556.94
2023-02-19T01:31:35.905Z,101556.38
2023-02-19T01:34:03.268Z,101566.59
2023-02-19T01:36:32.014Z,101563.09
2023-02-19T01:39:00.938Z,101570.25
2023-02-19T01:41:27.315Z,101569.13
2023-02-19T01:43:55.828Z,101564.34
2023-02-19T01:46:24.972Z,101574.13
2023-02-19T01:48:51.607Z,101571.63
2023-02-19T01:51:19.819Z,101569.25
2023-02-19T01:53:49.678Z,101577.94
2023-02-19T01:56:18.632Z,101577.63
2023-02-19T01:58:45.054Z,101580.16
2023-02-19T02:01:11.845Z,101575.28
2023-02-19T02:03:40.422Z,101570.94
2023-02-19T02:06:08.887Z,101575.56
2023-02-19T02:08:35.221Z,101581.44
2023-02-19T02:11:01.988Z,101571.06
2023-02-19T02:13:29.791Z,101575.56
2023-02-19T02:16:00.634Z,101575.69
2023-02-19T02:18:31.095Z,101571.47
2023-02-19T02:21:18.462Z,101570.50
2023-02-19T02:23:53.256Z,101570.94
2023-02-19T02:26:25.627Z,101578.91
2023-02-19T02:29:06.800Z,101580.72
2023-02-19T02:31:39.204Z,101571.47
2023-02-19T02:34:07.557Z,101578.47
2023-02-19T02:36:36.080Z,101578.47
2023-02-19T02:39:03.166Z,101581.56
2023-02-19T02:41:29.492Z,101578.78
2023-02-19T02:43:55.774Z,101577.63
2023-02-19T02:46:24.397Z,101579.47
2023-02-19T02:48:53.390Z,101583.66
2023-02-19T02:51:21.416Z,101573.75
2023-02-19T02:53:49.210Z,101583.78
2023-02-19T02:56:15.966Z,101588.28
2023-02-19T02:58:43.384Z,101584.63
2023-02-19T03:01:12.018Z,101585.22
2023-02-19T03:03:39.767Z,101584.63
2023-02-19T03:06:09.039Z,101584.94
2023-02-19T03:08:38.024Z,101597.53
2023-02-19T03:11:05.936Z,101601.16
2023-02-19T03:13:35.947Z,101599.34
2023-02-19T03:16:06.935Z,101604.91
2023-02-19T03:18:34.469Z,101599.88
2023-02-19T03:21:01.534Z,101603.50
2023-02-19T03:23:30.937Z,101606.59
2023-02-19T03:25:57.237Z,101613.13
2023-02-19T03:28:25.155Z,101608.53
2023-02-19T03:30:53.527Z,101614.69
2023-02-19T03:33:22.253Z,101622.66
2023-02-19T03:35:51.536Z,101617.88
2023-02-19T03:38:20.635Z,101616.16
2023-02-19T03:40:52.665Z,101622.31
2023-02-19T03:43:21.188Z,101621.81
2023-02-19T03:45:53.159Z,101620.91
2023-02-19T03:48:26.129Z,101615.19
2023-02-19T03:50:58.889Z,101628.69
2023-02-19T03:53:28.397Z,101637.13
2023-02-19T03:56:02.530Z,101635.28
2023-02-19T03:58:32.347Z,101638.78
2023-02-19T04:01:02.840Z,101653.28
2023-02-19T04:03:31.270Z,101640.88
2023-02-19T04:06:01.121Z,101647.47
2023-02-19T04:08:28.239Z,101662.56
2023-02-19T04:10:55.163Z,101653.53
2023-02-19T04:13:26.088Z,101653.75
2023-02-19T04:15:54.142Z,101669.81
2023-02-19T04:18:22.769Z,101671.50
2023-02-19T04:20:49.244Z,101676.97
2023-02-19T04:23:17.576Z,101667.56
2023-02-19T04:25:44.961Z,101675.25
2023-02-19T04:28:13.112Z,101675.59
2023-02-19T04:30:41.007Z,101682.28
2023-02-19T04:33:07.435Z,101682.88
2023-02-19T04:35:33.778Z,101684.53
2023-02-19T04:38:00.130Z,101687.09
2023-02-19T04:40:26.470Z,101694.00
2023-02-19T04:42:52.847Z,101694.59
2023-02-19T04:45:19.138Z,101699.06
2023-02-19T04:47:46.813Z,101711.03
2023-02-19T04:50:13.156Z,101700.97
2023-02-19T04:52:39.442Z,101708.25
2023-02-19T04:55:06.529Z,101722.84
2023-02-19T04:57:32.852Z,101715.84
2023-02-19T04:59:59.190Z,101717.41
2023-02-19T05:02:25.606Z,101727.31
2023-02-19T05:04:53.269Z,101729.00
2023-02-19T05:07:19.588Z,101736.44
2023-02-19T05:09:45.894Z,101738.44
2023-02-19T05:12:12.205Z,101738.78
2023-02-19T05:14:38.527Z,101743.63
2023-02-19T05:17:04.853Z,101752.38
2023-02-19T05:19:31.164Z,101748.41
2023-02-19T05:21:58.792Z,101755.31
2023-02-19T05:24:25.114Z,101757.13
2023-02-19T05:26:51.418Z,101759.22
2023-02-19T05:29:17.716Z,101762.31
2023-02-19T05:31:44.292Z,101765.69
2023-02-19T05:34:10.803Z,101765.03
2023-02-19T05:36:37.347Z,101764.84
2023-02-19T05:39:05.000Z,101774.38
2023-02-19T05:41:31.405Z,101765.56
2023-02-19T05:43:58.062Z,101771.66
2023-02-19T05:46:25.698Z,101768.41
2023-02-19T05:48:52.987Z,101774.81
2023-02-19T05:51:20.638Z,101772.50
2023-02-19T05:53:47.326Z,101778.53
2023-02-19T05:56:23.930Z,101774.38
2023-02-19T05:58:50.307Z,101770.34
2023-02-19T06:01:17.012Z,101779.41
2023-02-19T06:03:43.368Z,101777.75
2023-02-19T06:06:10.069Z,101777.59
2023-02-19T06:08:36.384Z,101777.34
2023-02-19T06:11:02.715Z,101779.28
2023-02-19T06:13:30.426Z,101778.69
2023-02-19T06:15:56.897Z,101784.31
2023-02-19T06:18:23.294Z,101783.66
2023-02-19T06:20:49.626Z,101785.94
2023-02-19T06:23:15.962Z,101777.75
2023-02-19T06:25:42.280Z,101792.88
2023-02-19T06:28:08.587Z,101796.31
2023-02-19T06:30:36.356Z,101800.66
2023-02-19T06:33:02.834Z,101799.25
2023-02-19T06:35:29.154Z,101807.16
2023-02-19T06:37:55.490Z,101806.69
2023-02-19T06:40:21.848Z,101811.53
2023-02-19T06:42:48.193Z,101817.94
2023-02-19T06:45:14.548Z,101822.41
2023-02-19T06:47:42.179Z,101833.97
2023-02-19T06:50:08.526Z,101833.34
2023-02-19T06:52:34.857Z,101834.91
2023-02-19T06:55:01.204Z,101840.94
2023-02-19T06:57:27.592Z,101849.13
2023-02-19T06:59:53.887Z,101846.75
2023-02-19T07:02:20.204Z,101839.16
2023-02-19T07:04:47.890Z,101849.41
2023-02-19T07:07:14.203Z,101856.25
2023-02-19T07:09:40.510Z,101854.31
2023-02-19T07:12:07.028Z,101849.00
2023-02-19T07:14:33.407Z,101856.84
2023-02-19T07:16:59.695Z,101859.03
2023-02-19T07:19:26.005Z,101859.03
2023-02-19T07:21:53.701Z,101863.25
2023-02-19T07:24:20.080Z,101870.47
2023-02-19T07:26:46.406Z,101877.31
2023-02-19T07:29:12.720Z,101877.91
2023-02-19T07:31:39.158Z,101881.41
2023-02-19T07:34:06.686Z,101882.84
2023-02-19T07:36:32.979Z,101888.66
2023-02-19T07:39:00.751Z,101899.50
2023-02-19T07:41:27.190Z,101905.66
2023-02-19T07:43:53.948Z,101903.13
2023-02-19T07:46:20.578Z,101910.38
2023-02-19T07:48:46.859Z,101915.31
2023-02-19T07:51:14.395Z,101912.03
2023-02-19T07:53:40.723Z,101913.47
2023-02-19T07:56:08.549Z,101924.84
2023-02-19T07:58:35.438Z,101928.47
2023-02-19T08:01:06.959Z,101939.03
2023-02-19T08:03:33.352Z,101934.28
2023-02-19T08:05:59.707Z,101943.19
2023-02-19T08:08:26.002Z,101951.28
2023-02-19T08:10:52.323Z,101951.19
2023-02-19T08:13:20.622Z,101959.34
2023-02-19T08:15:47.099Z,101962.38
2023-02-19T08:18:14.499Z,101972.50
2023-02-19T08:20:40.849Z,101980.09
2023-02-19T08:23:07.162Z,101979.84
2023-02-19T08:25:33.461Z,101978.41
2023-02-19T08:27:59.817Z,101977.19
2023-02-19T08:30:27.776Z,101976.47
2023-02-19T08:32:54.593Z,101983.59
2023-02-19T08:35:21.102Z,101990.47
2023-02-19T08:37:47.453Z,101990.97
2023-02-19T08:40:13.747Z,101996.50
2023-02-19T08:42:40.051Z,101994.81
2023-02-19T08:45:06.696Z,102000.72
2023-02-19T08:47:35.848Z,101998.56
2023-02-19T08:50:02.216Z,102001.69
2023-02-19T08:52:28.547Z,101998.06
2023-02-19T08:54:54.839Z,101996.59
2023-02-19T08:57:21.222Z,101995.75
2023-02-19T08:59:47.506Z,102001.44
2023-02-19T09:02:13.808Z,102009.03
2023-02-19T09:04:41.449Z,102007.00
2023-02-19T09:07:07.924Z,102003.25
2023-02-19T09:09:36.349Z,102012.88
2023-02-19T09:12:04.058Z,102011.44
2023-02-19T09:14:31.591Z,102023.72
2023-02-19T09:16:57.926Z,102032.38
2023-02-19T09:19:24.340Z,102039.38
2023-02-19T09:21:51.974Z,102030.69
2023-02-19T09:24:18.259Z,102019.00
2023-02-19T09:26:44.584Z,102017.66
2023-02-19T09:29:10.903Z,102028.50
2023-02-19T09:31:37.290Z,102028.00
2023-02-19T09:34:03.640Z,102029.31
2023-02-19T09:36:29.958Z,102031.25
2023-02-19T09:38:57.587Z,102030.66
2023-02-19T09:41:26.036Z,102030.16
2023-02-19T09:43:52.342Z,102030.34
2023-02-19T09:46:24.000Z,102033.00
2023-02-19T09:48:51.490Z,102031.72
2023-02-19T09:51:17.820Z,102041.25
2023-02-19T09:53:47.261Z,102042.81
2023-02-19T09:56:15.245Z,102050.44
2023-02-19T09:58:43.752Z,102046.34
2023-02-19T10:01:11.725Z,102055.06
2023-02-19T10:03:39.172Z,102069.19
2023-02-19T10:06:09.384Z,102083.66
2023-02-19T10:08:37.264Z,102086.56
2023-02-19T10:11:04.525Z,102087.00
2023-02-19T10:13:34.348Z,102088.56
2023-02-19T10:16:01.725Z,102091.81
2023-02-19T10:18:29.959Z,102097.25
2023-02-19T10:20:56.871Z,102109.53
2023-02-19T10:23:24.325Z,102104.69
2023-02-19T10:25:53.130Z,102103.91
2023-02-19T10:28:21.628Z,102103.56
2023-02-19T10:30:51.308Z,102111.84
2023-02-19T10:33:17.618Z,102107.66
2023-02-19T10:35:52.124Z,102112.91
2023-02-19T10:38:18.950Z,102122.97
2023-02-19T10:40:45.986Z,102130.03
2023-02-19T10:43:20.111Z,102134.50
2023-02-19T10:45:47.658Z,102137.69
2023-02-19T10:48:22.316Z,102147.09
2023-02-19T10:50:51.406Z,102151.97
2023-02-19T10:53:21.006Z,102163.53
2023-02-19T10:55:47.326Z,102167.31
2023-02-19T10:58:23.580Z,102173.13
2023-02-19T11:01:09.289Z,102181.66
2023-02-19T11:03:37.415Z,102178.88
2023-02-19T11:06:04.986Z,102177.81
2023-02-19T11:08:32.775Z,102167.91
2023-02-19T11:10:59.122Z,102172.75
2023-02-19T11:13:28.297Z,102172.97
2023-02-19T11:15:55.103Z,102171.81
2023-02-19T11:18:22.712Z,102184.97
2023-02-19T11:20:51.503Z,102180.44
2023-02-19T11:23:20.753Z,102173.16
2023-02-19T11:25:48.495Z,102166.50
2023-02-19T11:28:22.723Z,102166.75
2023-02-19T11:30:49.150Z,102155.41
2023-02-19T11:33:20.488Z,102157.44
2023-02-19T11:35:46.957Z,102146.88
2023-02-19T11:38:15.456Z,102133.06
2023-02-19T11:40:44.479Z,102138.63
2023-02-19T11:43:16.694Z,102143.47
2023-02-19T11:45:47.795Z,102152.00
2023-02-19T11:48:20.484Z,102145.88
2023-02-19T11:50:51.895Z,102149.09
2023-02-19T11:53:24.801Z,102140.63
2023-02-19T11:55:56.448Z,102134.47
2023-02-19T11:58:36.822Z,102136.53
2023-02-19T12:01:08.297Z,102145.22
2023-02-19T12:03:42.745Z,102146.25
2023-02-19T12:06:23.150Z,102136.56
2023-02-19T12:09:16.718Z,102145.38
2023-02-19T12:11:50.292Z,102144.13
2023-02-19T12:14:24.821Z,102153.88
2023-02-19T12:16:54.775Z,102142.72
2023-02-19T12:19:28.303Z,102134.41
2023-02-19T12:22:02.804Z,102145.03
2023-02-19T12:24:45.430Z,102143.88
2023-02-19T12:27:19.224Z,102143.88
2023-02-19T12:29:51.875Z,102143.28
2023-02-19T12:32:35.882Z,102144.38
2023-02-19T12:35:18.671Z,102144.13
2023-02-19T12:37:48.547Z,102143.63
2023-02-19T12:40:22.451Z,102141.59
2023-02-19T12:42:57.093Z,102143.88
2023-02-19T12:45:26.834Z,102143.34
2023-02-19T12:47:57.524Z,102138.31
2023-02-19T12:50:25.230Z,102140.63
2023-02-19T12:52:55.165Z,102140.19
2023-02-19T12:55:22.845Z,102147.28
2023-02-19T12:57:50.585Z,102148.56
2023-02-19T13:00:25.448Z,102151.69
2023-02-19T13:02:55.988Z,102163.06
2023-02-19T13:05:26.772Z,102161.72
2023-02-19T13:07:57.513Z,102160.09
2023-02-19T13:10:27.138Z,102157.47
2023-02-19T13:12:55.122Z,102165.47
2023-02-19T13:15:31.413Z,102178.03
2023-02-19T13:18:01.392Z,102171.69
2023-02-19T13:20:30.832Z,102172.91
2023-02-19T13:22:59.933Z,102175.09
2023-02-19T13:25:30.671Z,102167.69
2023-02-19T13:28:06.003Z,102184.69
2023-02-19T13:30:50.483Z,102172.97
2023-02-19T13:33:26.022Z,102175.53
2023-02-19T13:35:59.139Z,102171.69
2023-02-19T13:38:25.720Z,102184.16
2023-02-19T13:40:56.437Z,102182.94
2023-02-19T13:43:24.584Z,102184.34
2023-02-19T13:45:55.079Z,102185.88
2023-02-19T13:48:28.137Z,102192.69
2023-02-19T13:51:09.706Z,102198.44
2023-02-19T13:53:49.646Z,102201.34
2023-02-19T13:56:34.795Z,102210.84
2023-02-19T13:59:13.562Z,102207.28
2023-02-19T14:02:09.357Z,102225.34
2023-02-19T14:04:45.024Z,102224.97
2023-02-19T14:07:21.800Z,102222.72
2023-02-19T14:09:48.118Z,102222.75
2023-02-19T14:12:18.649Z,102228.06
2023-02-19T14:14:45.329Z,102210.91
2023-02-19T14:17:26.593Z,102228.81
2023-02-19T14:19:55.280Z,102226.91
2023-02-19T14:22:40.153Z,102230.13
2023-02-19T14:25:08.088Z,102240.22
2023-02-19T14:27:34.456Z,102248.69
2023-02-19T14:30:00.940Z,102249.00
2023-02-19T14:32:27.311Z,102259.31
2023-02-19T14:34:55.510Z,102258.31
2023-02-19T14:37:22.314Z,102261.13
2023-02-19T14:39:48.818Z,102258.09
2023-02-19T14:42:16.437Z,102261.03
2023-02-19T14:44:46.627Z,102273.72
2023-02-19T14:47:14.394Z,102275.50
2023-02-19T14:49:42.410Z,102273.81
2023-02-19T14:52:14.519Z,102260.41
2023-02-19T14:54:42.699Z,102267.19
2023-02-19T14:57:12.550Z,102269.59
2023-02-19T14:59:38.870Z,102268.25
2023-02-19T15:02:13.927Z,102261.81
2023-02-19T15:04:40.276Z,102273.53
2023-02-19T15:07:08.304Z,102261.31
2023-02-19T15:09:39.275Z,102262.16
2023-02-19T15:12:06.113Z,102262.03
2023-02-19T15:14:32.890Z,102266.72
2023-02-19T15:17:01.022Z,102249.34
2023-02-19T15:19:28.061Z,102249.44
2023-02-19T15:21:54.569Z,102244.88
2023-02-19T15:24:21.191Z,102239.41
2023-02-19T15:26:50.000Z,102226.75
2023-02-19T15:29:17.517Z,102235.09
2023-02-19T15:31:47.568Z,102229.50
2023-02-19T15:34:15.625Z,102232.38
2023-02-19T15:36:41.987Z,102228.41
2023-02-19T15:39:16.693Z,102229.72
2023-02-19T15:41:43.033Z,102230.38
2023-02-19T15:44:19.555Z,102229.69
2023-02-19T15:46:46.236Z,102242.16
2023-02-19T15:49:14.160Z,102255.13
2023-02-19T15:51:43.120Z,102254.75
2023-02-19T15:54:14.897Z,102247.00
2023-02-19T15:56:44.010Z,102264.72
2023-02-19T15:59:17.466Z,102261.16
2023-02-19T16:01:44.228Z,102268.91
2023-02-19T16:04:11.436Z,102276.22
2023-02-19T16:06:50.566Z,102282.69
2023-02-19T16:09:19.934Z,102292.09
2023-02-19T16:11:49.593Z,102305.91
2023-02-19T16:14:18.677Z,102295.13
2023-02-19T16:16:46.599Z,102296.09
2023-02-19T16:19:13.167Z,102292.28
2023-02-19T16:21:43.286Z,102296.59
2023-02-19T16:24:13.798Z,102296.66
2023-02-19T16:26:40.236Z,102298.75
2023-02-19T16:29:16.626Z,102296.31
2023-02-19T16:31:49.009Z,102296.66
2023-02-19T16:34:16.525Z,102303.84
2023-02-19T16:36:42.877Z,102312.97
2023-02-19T16:39:22.444Z,102312.25
2023-02-19T16:42:15.933Z,102333.47
2023-02-19T16:44:43.199Z,102342.53
2023-02-19T16:47:20.157Z,102351.09
2023-02-19T16:49:46.485Z,102347.19
2023-02-19T16:52:14.730Z,102352.94
2023-02-19T16:54:41.131Z,102352.50
2023-02-19T16:57:07.599Z,102354.19
2023-02-19T16:59:33.927Z,102358.84
2023-02-19T17:02:00.253Z,102363.31
2023-02-19T17:04:27.909Z,102370.63
2023-02-19T17:06:54.260Z,102370.09
2023-02-19T17:09:20.590Z,102371.13
2023-02-19T17:11:46.957Z,102363.84
2023-02-19T17:14:15.026Z,102366.69
2023-02-19T17:16:41.355Z,102367.03
2023-02-19T17:19:10.336Z,102359.19
2023-02-19T17:21:38.012Z,102356.53
2023-02-19T17:24:04.550Z,102357.38
2023-02-19T17:26:32.226Z,102355.59
2023-02-19T17:28:59.005Z,102360.34
2023-02-19T17:31:25.473Z,102370.53
2023-02-19T17:33:51.870Z,102378.13
2023-02-19T17:36:19.106Z,102372.63
2023-02-19T17:38:46.773Z,102373.69
2023-02-19T17:41:13.223Z,102387.88
2023-02-19T17:43:39.608Z,102386.63
2023-02-19T17:46:06.018Z,102388.31
2023-02-19T17:48:32.388Z,102390.97
2023-02-19T17:50:58.686Z,102387.16
2023-02-19T17:53:24.967Z,102388.94
2023-02-19T17:55:52.618Z,102385.75
2023-02-19T17:58:18.916Z,102381.31
2023-02-19T18:00:45.241Z,102379.94
2023-02-19T18:03:11.581Z,102391.00
2023-02-19T18:05:37.891Z,102389.91
2023-02-19T18:08:04.231Z,102395.88
2023-02-19T18:10:30.557Z,102393.09
2023-02-19T18:12:58.805Z,102403.44
2023-02-19T18:15:25.988Z,102406.38
2023-02-19T18:17:52.302Z,102408.78
2023-02-19T18:20:19.719Z,102408.25
2023-02-19T18:22:46.002Z,102406.53
2023-02-19T18:25:12.482Z,102397.53
2023-02-19T18:27:38.813Z,102401.34
2023-02-19T18:30:07.619Z,102399.94
2023-02-19T18:32:33.988Z,102401.63
2023-02-19T18:35:00.316Z,102403.53
2023-02-19T18:37:27.507Z,102416.56
2023-02-19T18:39:53.990Z,102418.16
2023-02-19T18:42:21.645Z,102426.28
2023-02-19T18:44:49.246Z,102422.78
2023-02-19T18:47:16.980Z,102421.22
2023-02-19T18:49:45.257Z,102428.19
2023-02-19T18:52:11.543Z,102426.03
2023-02-19T18:54:37.911Z,102424.59
2023-02-19T18:57:04.247Z,102416.22
2023-02-19T18:59:30.788Z,102410.16
2023-02-19T19:01:57.464Z,102406.59
2023-02-19T19:04:25.164Z,102413.41
2023-02-19T19:06:51.514Z,102423.59
2023-02-19T19:09:17.850Z,102429.03
2023-02-19T19:11:44.157Z,102427.31
2023-02-19T19:14:10.495Z,102421.84
2023-02-19T19:16:36.829Z,102422.97
2023-02-19T19:19:03.310Z,102435.44
2023-02-19T19:21:31.360Z,102436.50
2023-02-19T19:23:57.646Z,102445.56
2023-02-19T19:26:23.978Z,102436.09
2023-02-19T19:28:50.278Z,102431.59
2023-02-19T19:31:17.774Z,102433.00
2023-02-19T19:33:44.205Z,102430.56
2023-02-19T19:36:11.204Z,102441.78
2023-02-19T19:38:38.980Z,102444.81
2023-02-19T19:41:05.342Z,102439.22
2023-02-19T19:43:32.381Z,102441.22
2023-02-19T19:45:59.324Z,102445.25
2023-02-19T19:48:26.037Z,102443.59
2023-02-19T19:50:52.353Z,102439.69
2023-02-19T19:53:18.699Z,102434.50
2023-02-19T19:55:46.413Z,102430.81
2023-02-19T19:58:12.723Z,102438.81
2023-02-19T20:00:39.009Z,102442.44
2023-02-19T20:03:05.308Z,102442.44
2023-02-19T20:05:31.626Z,102442.63
2023-02-19T20:07:57.961Z,102442.78
2023-02-19T20:10:24.277Z,102441.09
2023-02-19T20:12:51.921Z,102454.28
2023-02-19T20:15:20.138Z,102456.25
2023-02-19T20:17:46.452Z,102452.13
2023-02-19T20:20:13.072Z,102448.63
2023-02-19T20:22:39.527Z,102450.41
2023-02-19T20:25:06.083Z,102456.88
2023-02-19T20:27:32.404Z,102452.75
2023-02-19T20:30:00.033Z,102461.44
2023-02-19T20:32:26.334Z,102463.47
2023-02-19T20:34:52.661Z,102458.56
2023-02-19T20:37:18.991Z,102471.78
2023-02-19T20:39:45.307Z,102460.63
2023-02-19T20:42:11.641Z,102471.34
2023-02-19T20:44:37.951Z,102477.75
2023-02-19T20:47:06.318Z,102477.31
2023-02-19T20:49:32.611Z,102475.44
2023-02-19T20:52:00.183Z,102465.09
2023-02-19T20:54:27.692Z,102455.38
2023-02-19T20:56:55.481Z,102457.06
2023-02-19T20:59:23.127Z,102447.47
2023-02-19T21:01:49.653Z,102446.63
2023-02-19T21:04:17.357Z,102438.88
2023-02-19T21:06:43.638Z,102442.63
2023-02-19T21:09:10.070Z,102441.13
2023-02-19T21:11:36.416Z,102444.00
2023-02-19T21:14:02.760Z,102445.00
2023-02-19T21:16:30.113Z,102443.59
2023-02-19T21:18:56.678Z,102436.63
2023-02-19T21:21:24.911Z,102432.44
2023-02-19T21:23:51.270Z,102432.56
2023-02-19T21:26:17.864Z,102433.63
2023-02-19T21:28:44.201Z,102432.06
2023-02-19T21:31:10.675Z,102433.94
2023-02-19T21:33:37.085Z,102443.56
2023-02-19T21:36:03.565Z,102436.75
2023-02-19T21:38:32.715Z,102437.72
2023-02-19T21:40:59.077Z,102453.53
2023-02-19T21:43:25.364Z,102450.13
2023-02-19T21:45:51.691Z,102447.56
2023-02-19T21:48:18.019Z,102436.16
2023-02-19T21:50:44.455Z,102432.59
2023-02-19T21:53:10.760Z,102423.00
2023-02-19T21:55:38.618Z,102424.00
2023-02-19T21:58:06.144Z,102416.09
2023-02-19T22:00:32.473Z,102414.59
2023-02-19T22:02:58.931Z,102404.13
2023-02-19T22:05:25.456Z,102420.72
2023-02-19T22:07:51.782Z,102419.00
2023-02-19T22:10:18.084Z,102422.56
2023-02-19T22:12:45.819Z,102420.03
2023-02-19T22:15:12.515Z,102429.63
2023-02-19T22:17:38.829Z,102433.19
2023-02-19T22:20:05.988Z,102421.72
2023-02-19T22:22:32.287Z,102433.19
2023-02-19T22:24:58.568Z,102433.28
2023-02-19T22:27:24.839Z,102433.28
2023-02-19T22:29:52.530Z,102430.72
2023-02-19T22:32:18.966Z,102429.78
2023-02-19T22:34:45.320Z,102440.41
2023-02-19T22:37:11.668Z,102439.72
2023-02-19T22:39:37.994Z,102440.50
2023-02-19T22:42:04.487Z,102430.81
2023-02-19T22:44:30.792Z,102429.09
2023-02-19T22:46:58.417Z,102433.53
2023-02-19T22:49:24.777Z,102428.38
2023-02-19T22:51:53.431Z,102422.25
2023-02-19T22:54:19.733Z,102431.00
2023-02-19T22:56:46.001Z,102427.41
2023-02-19T22:59:12.352Z,102427.50
2023-02-19T23:01:38.986Z,102419.59
2023-02-19T23:04:06.654Z,102417.81
2023-02-19T23:06:34.038Z,102416.97
2023-02-19T23:09:03.131Z,102410.91
2023-02-19T23:11:30.957Z,102411.94
2023-02-19T23:13:57.738Z,102415.59
2023-02-19T23:16:24.157Z,102405.97
2023-02-19T23:18:50.502Z,102410.59
2023-02-19T23:21:19.222Z,102411.31
2023-02-19T23:23:46.007Z,102406.06
2023-02-19T23:26:13.183Z,102398.06
2023-02-19T23:28:40.106Z,102393.72
2023-02-19T23:31:06.557Z,102400.78
2023-02-19T23:33:33.004Z,102405.13
2023-02-19T23:35:59.386Z,102400.03
2023-02-19T23:38:27.014Z,102391.09
2023-02-19T23:40:53.335Z,102379.69
2023-02-19T23:43:19.689Z,102380.91
2023-02-19T23:45:46.132Z,102376.13
2023-02-19T23:48:12.497Z,102384.13
2023-02-19T23:50:38.773Z,102377.19
2023-02-19T23:53:05.096Z,102374.44
2023-02-19T23:55:32.749Z,102367.06
2023-02-19T23:57:59.094Z,102367.91
